Airfield :
LOGIN :

Register | Disclaimer

   EN    FR    IT 

 










Legend :    VFR   Marginal VFR   IFR   Intensive IFR   Very Intensive IFR
Visi :
Ceiling :
>= 8 km
>= 3000ft
5 to 8 km
1000 to 3000 ft
1500m to 5 km
500 to 1000 ft
800 to 1500m
200 to 500 ft
< 800m
< 200 ft
Symbols :   Thunderstorms  Fog  Heavy snow  Heavy precipitations  Wind > 20 kt
SIGMETs :     Misc.  Thunderstorms  Icing  Turbulence  Mountain Waves  Volcanic Ashes






- Airport Elevation : 102 ft
- IATA code : KEL


EDHK - Holtenau

CURRENT METAR :
  • 290820Z 27005KT 220V320 9999 FEW025 SCT033 14/08 Q1010

EXPIRED METARs :
  • 290750Z 29007KT 9999 FEW021 SCT028 13/08 Q1010
  • 290720Z 30005KT 240V030 9999 SCT017 12/07 Q1010
  • 290650Z 29005KT 230V330 9999 SCT014 12/08 Q1010
  • 290620Z AUTO 28005KT 230V300 9999 // BKN011/// BKN021/// 11/08 Q1010
  • 290550Z AUTO 27005KT 240V310 9999 // SCT010/// SCT026/// 10/08 Q1010

TAF TAF EDHK
Valid from the 29 at 09:00 until the 29 at 18:00 UTC


290800Z 2909/2918 29005KT 9999 SCT014 BKN020
PROB30
TEMPO 2909/2910 BKN012
PROB40
TEMPO 2910/2918 SHRA BKN015CB



MET'MAP, your aeronautical weather chart ! - Copyright ORBIFLY December 2007 - Disclaimer

ORBIFLY MET'MAP TEAM :

Programming & Development : Alexandra Zaïnal
Original concept : Baudouin d'Aumeries
Technical & hardware support : Manuel Goepfert
Assistance : Marc-Olivier Méhu

Contact : metmap@orbifly.com




SOURCES & CREDITS :

   NOAA